sensor_id;sensor_type;location;lat;lon;timestamp;pressure;altitude;pressure_sealevel;temperature;humidity
75298;BME280;63896;45.990;18.688;2023-05-19T00:01:13;101332.97;;;12.78;100.00
75298;BME280;63896;45.990;18.688;2023-05-19T00:04:18;101323.75;;;12.74;100.00
75298;BME280;63896;45.990;18.688;2023-05-19T00:07:24;101316.78;;;12.73;100.00
75298;BME280;63896;45.990;18.688;2023-05-19T00:10:32;101311.88;;;12.70;100.00
75298;BME280;63896;45.990;18.688;2023-05-19T00:13:35;101311.25;;;12.68;100.00
75298;BME280;63896;45.990;18.688;2023-05-19T00:16:38;101306.75;;;12.62;100.00
75298;BME280;63896;45.990;18.688;2023-05-19T00:19:42;101305.09;;;12.61;100.00
75298;BME280;63896;45.990;18.688;2023-05-19T00:22:47;101311.88;;;12.50;100.00
75298;BME280;63896;45.990;18.688;2023-05-19T00:25:50;101310.41;;;12.48;100.00
75298;BME280;63896;45.990;18.688;2023-05-19T00:28:53;101304.72;;;12.51;100.00
75298;BME280;63896;45.990;18.688;2023-05-19T00:31:56;101310.84;;;12.38;100.00
75298;BME280;63896;45.990;18.688;2023-05-19T00:35:00;101305.31;;;12.39;100.00
75298;BME280;63896;45.990;18.688;2023-05-19T00:38:02;101310.59;;;12.33;100.00
75298;BME280;63896;45.990;18.688;2023-05-19T00:41:06;101305.88;;;12.28;100.00
75298;BME280;63896;45.990;18.688;2023-05-19T00:44:08;101298.53;;;12.30;100.00
75298;BME280;63896;45.990;18.688;2023-05-19T00:47:11;101300.78;;;12.27;100.00
75298;BME280;63896;45.990;18.688;2023-05-19T00:50:15;101292.19;;;12.25;100.00
75298;BME280;63896;45.990;18.688;2023-05-19T00:53:18;101286.47;;;12.28;100.00
75298;BME280;63896;45.990;18.688;2023-05-19T00:56:21;101293.63;;;12.27;100.00
75298;BME280;63896;45.990;18.688;2023-05-19T00:59:24;101291.16;;;12.32;100.00
75298;BME280;63896;45.990;18.688;2023-05-19T01:02:27;101284.81;;;12.27;100.00
75298;BME280;63896;45.990;18.688;2023-05-19T01:05:31;101293.81;;;12.19;100.00
75298;BME280;63896;45.990;18.688;2023-05-19T01:08:37;101291.34;;;12.18;100.00
75298;BME280;63896;45.990;18.688;2023-05-19T01:11:40;101293.41;;;12.22;100.00
75298;BME280;63896;45.990;18.688;2023-05-19T01:14:43;101295.44;;;12.20;100.00
75298;BME280;63896;45.990;18.688;2023-05-19T01:17:57;101296.91;;;12.16;100.00
75298;BME280;63896;45.990;18.688;2023-05-19T01:30:58;101286.63;;;12.07;100.00
75298;BME280;63896;45.990;18.688;2023-05-19T01:34:02;101288.47;;;12.13;100.00
75298;BME280;63896;45.990;18.688;2023-05-19T01:37:06;101290.34;;;12.12;100.00
75298;BME280;63896;45.990;18.688;2023-05-19T01:40:10;101286.44;;;12.21;100.00
75298;BME280;63896;45.990;18.688;2023-05-19T01:43:22;101283.59;;;12.23;100.00
75298;BME280;63896;45.990;18.688;2023-05-19T01:46:25;101280.53;;;12.26;100.00
75298;BME280;63896;45.990;18.688;2023-05-19T01:49:28;101276.44;;;12.30;100.00
75298;BME280;63896;45.990;18.688;2023-05-19T01:52:32;101279.31;;;12.35;100.00
75298;BME280;63896;45.990;18.688;2023-05-19T01:55:46;101272.34;;;12.34;100.00
75298;BME280;63896;45.990;18.688;2023-05-19T01:58:59;101282.78;;;12.35;100.00
75298;BME280;63896;45.990;18.688;2023-05-19T02:02:25;101277.66;;;12.34;100.00
75298;BME280;63896;45.990;18.688;2023-05-19T02:06:06;101271.94;;;12.37;100.00
75298;BME280;63896;45.990;18.688;2023-05-19T02:12:34;101287.28;;;12.41;100.00
75298;BME280;63896;45.990;18.688;2023-05-19T02:15:39;101284.63;;;12.48;100.00
75298;BME280;63896;45.990;18.688;2023-05-19T02:18:46;101292.19;;;12.51;100.00
75298;BME280;63896;45.990;18.688;2023-05-19T02:21:49;101296.72;;;12.51;100.00
75298;BME280;63896;45.990;18.688;2023-05-19T02:24:56;101297.97;;;12.55;100.00
75298;BME280;63896;45.990;18.688;2023-05-19T02:27:59;101296.28;;;12.67;100.00
75298;BME280;63896;45.990;18.688;2023-05-19T02:31:04;101290.38;;;12.65;100.00
75298;BME280;63896;45.990;18.688;2023-05-19T02:34:10;101282.56;;;12.63;100.00
75298;BME280;63896;45.990;18.688;2023-05-19T02:37:13;101280.94;;;12.62;100.00
75298;BME280;63896;45.990;18.688;2023-05-19T02:40:17;101278.06;;;12.57;100.00
75298;BME280;63896;45.990;18.688;2023-05-19T02:43:21;101273.38;;;12.53;100.00
75298;BME280;63896;45.990;18.688;2023-05-19T02:46:24;101287.28;;;12.61;100.00
75298;BME280;63896;45.990;18.688;2023-05-19T02:49:27;101287.28;;;12.48;100.00
75298;BME280;63896;45.990;18.688;2023-05-19T02:52:32;101288.31;;;12.47;100.00
75298;BME280;63896;45.990;18.688;2023-05-19T02:55:35;101287.91;;;12.57;100.00
75298;BME280;63896;45.990;18.688;2023-05-19T02:58:39;101289.94;;;12.48;100.00
75298;BME280;63896;45.990;18.688;2023-05-19T03:01:44;101293.66;;;12.47;100.00
75298;BME280;63896;45.990;18.688;2023-05-19T03:04:49;101298.75;;;12.55;100.00
75298;BME280;63896;45.990;18.688;2023-05-19T03:07:52;101301.19;;;12.63;100.00
75298;BME280;63896;45.990;18.688;2023-05-19T03:10:55;101303.69;;;12.65;100.00
75298;BME280;63896;45.990;18.688;2023-05-19T03:13:58;101305.94;;;12.61;100.00
75298;BME280;63896;45.990;18.688;2023-05-19T03:17:02;101310.25;;;12.62;100.00
75298;BME280;63896;45.990;18.688;2023-05-19T03:20:06;101316.34;;;12.63;100.00
75298;BME280;63896;45.990;18.688;2023-05-19T03:23:11;101312.69;;;12.64;100.00
75298;BME280;63896;45.990;18.688;2023-05-19T03:26:14;101325.81;;;12.65;100.00
75298;BME280;63896;45.990;18.688;2023-05-19T03:29:17;101318.41;;;12.67;100.00
75298;BME280;63896;45.990;18.688;2023-05-19T03:32:21;101322.50;;;12.63;100.00
75298;BME280;63896;45.990;18.688;2023-05-19T03:35:24;101325.19;;;12.70;100.00
75298;BME280;63896;45.990;18.688;2023-05-19T03:38:27;101320.28;;;12.73;100.00
75298;BME280;63896;45.990;18.688;2023-05-19T03:41:32;101328.22;;;12.86;100.00
75298;BME280;63896;45.990;18.688;2023-05-19T03:44:36;101327.63;;;12.84;100.00
75298;BME280;63896;45.990;18.688;2023-05-19T03:47:39;101333.97;;;12.90;100.00
75298;BME280;63896;45.990;18.688;2023-05-19T03:51:01;101326.81;;;12.90;100.00
75298;BME280;63896;45.990;18.688;2023-05-19T03:54:05;101326.63;;;12.85;100.00
75298;BME280;63896;45.990;18.688;2023-05-19T03:57:09;101332.75;;;12.86;100.00
75298;BME280;63896;45.990;18.688;2023-05-19T04:00:13;101330.28;;;12.91;100.00
75298;BME280;63896;45.990;18.688;2023-05-19T04:03:17;101331.31;;;12.97;100.00
75298;BME280;63896;45.990;18.688;2023-05-19T04:06:20;101329.25;;;12.99;100.00
75298;BME280;63896;45.990;18.688;2023-05-19T04:09:24;101330.88;;;13.06;100.00
75298;BME280;63896;45.990;18.688;2023-05-19T04:12:29;101329.06;;;13.20;100.00
75298;BME280;63896;45.990;18.688;2023-05-19T04:15:32;101329.47;;;13.23;100.00
75298;BME280;63896;45.990;18.688;2023-05-19T04:18:35;101323.91;;;13.25;100.00
75298;BME280;63896;45.990;18.688;2023-05-19T04:21:38;101328.44;;;13.24;100.00
75298;BME280;63896;45.990;18.688;2023-05-19T04:24:41;101335.41;;;13.19;100.00
75298;BME280;63896;45.990;18.688;2023-05-19T04:27:45;101339.69;;;13.26;100.00
75298;BME280;63896;45.990;18.688;2023-05-19T04:30:51;101345.25;;;13.31;100.00
75298;BME280;63896;45.990;18.688;2023-05-19T04:33:54;101351.78;;;13.29;100.00
75298;BME280;63896;45.990;18.688;2023-05-19T04:36:57;101364.28;;;13.35;100.00
75298;BME280;63896;45.990;18.688;2023-05-19T04:40:00;101355.06;;;13.31;100.00
75298;BME280;63896;45.990;18.688;2023-05-19T04:43:05;101359.78;;;13.29;100.00
75298;BME280;63896;45.990;18.688;2023-05-19T04:46:10;101362.81;;;13.46;100.00
75298;BME280;63896;45.990;18.688;2023-05-19T04:49:17;101367.75;;;13.42;100.00
75298;BME280;63896;45.990;18.688;2023-05-19T04:52:20;101368.19;;;13.39;100.00
75298;BME280;63896;45.990;18.688;2023-05-19T04:55:24;101362.22;;;13.44;100.00
75298;BME280;63896;45.990;18.688;2023-05-19T04:58:28;101363.03;;;13.44;100.00
75298;BME280;63896;45.990;18.688;2023-05-19T05:01:31;101370.63;;;13.47;100.00
75298;BME280;63896;45.990;18.688;2023-05-19T05:04:37;101373.69;;;13.51;100.00
75298;BME280;63896;45.990;18.688;2023-05-19T05:07:44;101377.59;;;13.55;100.00
75298;BME280;63896;45.990;18.688;2023-05-19T05:10:51;101377.31;;;13.69;100.00
75298;BME280;63896;45.990;18.688;2023-05-19T05:13:54;101381.41;;;13.78;100.00
75298;BME280;63896;45.990;18.688;2023-05-19T05:17:02;101392.00;;;13.92;100.00
75298;BME280;63896;45.990;18.688;2023-05-19T05:20:06;101383.19;;;13.98;100.00
75298;BME280;63896;45.990;18.688;2023-05-19T05:23:10;101388.00;;;14.14;100.00
75298;BME280;63896;45.990;18.688;2023-05-19T05:26:19;101386.94;;;14.21;100.00
75298;BME280;63896;45.990;18.688;2023-05-19T05:29:31;101386.28;;;14.39;100.00
75298;BME280;63896;45.990;18.688;2023-05-19T05:32:35;101393.59;;;14.50;100.00
75298;BME280;63896;45.990;18.688;2023-05-19T05:35:43;101393.28;;;14.65;100.00
75298;BME280;63896;45.990;18.688;2023-05-19T05:38:48;101396.13;;;14.70;100.00
75298;BME280;63896;45.990;18.688;2023-05-19T05:41:52;101394.63;;;14.49;100.00
75298;BME280;63896;45.990;18.688;2023-05-19T05:44:55;101386.56;;;14.56;100.00
75298;BME280;63896;45.990;18.688;2023-05-19T05:47:58;101390.09;;;14.50;100.00
75298;BME280;63896;45.990;18.688;2023-05-19T05:51:02;101392.31;;;14.59;100.00
75298;BME280;63896;45.990;18.688;2023-05-19T05:54:12;101389.47;;;14.54;100.00
75298;BME280;63896;45.990;18.688;2023-05-19T05:57:19;101383.50;;;14.84;100.00
75298;BME280;63896;45.990;18.688;2023-05-19T06:00:24;101393.53;;;15.13;99.32
75298;BME280;63896;45.990;18.688;2023-05-19T06:03:40;101394.00;;;15.28;97.18
75298;BME280;63896;45.990;18.688;2023-05-19T06:07:52;101392.47;;;15.39;96.26
75298;BME280;63896;45.990;18.688;2023-05-19T06:10:59;101403.09;;;15.45;96.93
75298;BME280;63896;45.990;18.688;2023-05-19T06:14:04;101401.47;;;15.44;96.47
75298;BME280;63896;45.990;18.688;2023-05-19T06:17:42;101395.91;;;15.64;96.35
75298;BME280;63896;45.990;18.688;2023-05-19T06:20:47;101397.44;;;15.78;94.97
75298;BME280;63896;45.990;18.688;2023-05-19T06:23:51;101399.19;;;16.02;94.23
75298;BME280;63896;45.990;18.688;2023-05-19T06:31:37;101393.28;;;16.60;90.03
75298;BME280;63896;45.990;18.688;2023-05-19T06:34:44;101384.66;;;16.70;89.33
75298;BME280;63896;45.990;18.688;2023-05-19T06:38:01;101385.97;;;16.79;87.65
75298;BME280;63896;45.990;18.688;2023-05-19T06:41:04;101381.13;;;16.57;84.82
75298;BME280;63896;45.990;18.688;2023-05-19T06:44:10;101406.94;;;16.22;88.04
75298;BME280;63896;45.990;18.688;2023-05-19T06:47:14;101423.88;;;16.04;88.86
75298;BME280;63896;45.990;18.688;2023-05-19T06:50:19;101410.13;;;16.31;90.12
75298;BME280;63896;45.990;18.688;2023-05-19T06:53:23;101410.06;;;16.37;89.52
75298;BME280;63896;45.990;18.688;2023-05-19T06:56:27;101406.59;;;16.78;87.89
75298;BME280;63896;45.990;18.688;2023-05-19T06:59:38;101400.13;;;17.21;85.17
75298;BME280;63896;45.990;18.688;2023-05-19T07:03:10;101400.00;;;17.27;84.06
75298;BME280;63896;45.990;18.688;2023-05-19T07:06:15;101404.88;;;17.42;82.74
75298;BME280;63896;45.990;18.688;2023-05-19T07:09:20;101404.19;;;17.46;84.06
75298;BME280;63896;45.990;18.688;2023-05-19T07:12:23;101403.97;;;17.48;83.84
75298;BME280;63896;45.990;18.688;2023-05-19T07:15:28;101396.75;;;17.48;81.85
75298;BME280;63896;45.990;18.688;2023-05-19T07:18:31;101391.94;;;17.15;82.73
75298;BME280;63896;45.990;18.688;2023-05-19T07:21:34;101385.66;;;17.10;82.03
75298;BME280;63896;45.990;18.688;2023-05-19T07:24:37;101382.63;;;18.33;78.77
75298;BME280;63896;45.990;18.688;2023-05-19T07:27:40;101392.75;;;18.71;74.46
75298;BME280;63896;45.990;18.688;2023-05-19T07:30:45;101383.63;;;18.72;74.90
75298;BME280;63896;45.990;18.688;2023-05-19T07:33:49;101382.56;;;18.56;77.63
75298;BME280;63896;45.990;18.688;2023-05-19T07:36:56;101381.66;;;18.39;77.19
75298;BME280;63896;45.990;18.688;2023-05-19T07:39:59;101384.31;;;17.94;76.98
75298;BME280;63896;45.990;18.688;2023-05-19T07:43:02;101383.47;;;18.78;76.91
75298;BME280;63896;45.990;18.688;2023-05-19T07:46:05;101385.06;;;18.63;75.30
75298;BME280;63896;45.990;18.688;2023-05-19T07:49:08;101382.16;;;17.56;76.77
75298;BME280;63896;45.990;18.688;2023-05-19T07:52:11;101394.06;;;17.37;79.23
75298;BME280;63896;45.990;18.688;2023-05-19T07:55:15;101397.78;;;17.12;80.38
75298;BME280;63896;45.990;18.688;2023-05-19T07:58:21;101397.91;;;17.06;82.01
75298;BME280;63896;45.990;18.688;2023-05-19T08:01:23;101408.22;;;16.67;83.28
75298;BME280;63896;45.990;18.688;2023-05-19T08:04:27;101405.03;;;17.35;80.87
75298;BME280;63896;45.990;18.688;2023-05-19T08:07:37;101398.38;;;18.13;77.56
75298;BME280;63896;45.990;18.688;2023-05-19T08:10:40;101394.53;;;18.08;76.51
75298;BME280;63896;45.990;18.688;2023-05-19T08:13:43;101391.66;;;18.55;76.41
75298;BME280;63896;45.990;18.688;2023-05-19T08:16:49;101391.41;;;19.78;73.09
75298;BME280;63896;45.990;18.688;2023-05-19T08:19:52;101387.81;;;20.65;67.99
75298;BME280;63896;45.990;18.688;2023-05-19T08:23:07;101383.41;;;21.69;64.17
75298;BME280;63896;45.990;18.688;2023-05-19T08:26:12;101387.63;;;20.23;66.04
75298;BME280;63896;45.990;18.688;2023-05-19T08:29:15;101378.88;;;19.45;67.55
75298;BME280;63896;45.990;18.688;2023-05-19T08:32:18;101375.38;;;21.32;64.50
75298;BME280;63896;45.990;18.688;2023-05-19T08:35:21;101387.66;;;19.58;69.31
75298;BME280;63896;45.990;18.688;2023-05-19T08:38:24;101376.50;;;20.68;67.29
75298;BME280;63896;45.990;18.688;2023-05-19T08:41:27;101373.06;;;22.28;62.23
75298;BME280;63896;45.990;18.688;2023-05-19T08:44:31;101366.38;;;22.97;59.18
75298;BME280;63896;45.990;18.688;2023-05-19T08:47:34;101372.78;;;24.15;57.74
75298;BME280;63896;45.990;18.688;2023-05-19T08:50:39;101370.47;;;25.34;52.46
75298;BME280;63896;45.990;18.688;2023-05-19T08:53:47;101356.91;;;24.72;52.13
75298;BME280;63896;45.990;18.688;2023-05-19T08:56:53;101365.25;;;24.85;54.23
75298;BME280;63896;45.990;18.688;2023-05-19T08:59:57;101358.28;;;24.40;53.34
75298;BME280;63896;45.990;18.688;2023-05-19T09:03:04;101356.75;;;24.24;54.07
75298;BME280;63896;45.990;18.688;2023-05-19T09:06:13;101352.47;;;26.04;50.48
75298;BME280;63896;45.990;18.688;2023-05-19T09:09:17;101353.88;;;25.83;49.68
75298;BME280;63896;45.990;18.688;2023-05-19T09:12:23;101339.88;;;25.52;49.09
75298;BME280;63896;45.990;18.688;2023-05-19T09:15:30;101343.59;;;26.18;47.10
75298;BME280;63896;45.990;18.688;2023-05-19T09:18:54;101345.47;;;25.80;49.22
75298;BME280;63896;45.990;18.688;2023-05-19T09:22:01;101337.47;;;25.88;47.44
75298;BME280;63896;45.990;18.688;2023-05-19T09:25:21;101337.84;;;25.34;50.88
75298;BME280;63896;45.990;18.688;2023-05-19T09:28:26;101347.59;;;24.49;52.13
75298;BME280;63896;45.990;18.688;2023-05-19T09:31:31;101337.50;;;24.59;50.29
75298;BME280;63896;45.990;18.688;2023-05-19T09:34:41;101337.69;;;25.02;49.24
75298;BME280;63896;45.990;18.688;2023-05-19T09:37:44;101333.28;;;26.15;46.23
75298;BME280;63896;45.990;18.688;2023-05-19T09:41:00;101327.75;;;25.40;48.57
75298;BME280;63896;45.990;18.688;2023-05-19T09:44:04;101325.41;;;26.83;46.74
75298;BME280;63896;45.990;18.688;2023-05-19T09:47:08;101315.88;;;25.97;47.32
75298;BME280;63896;45.990;18.688;2023-05-19T09:50:15;101315.34;;;26.14;46.38
75298;BME280;63896;45.990;18.688;2023-05-19T09:53:20;101315.59;;;26.49;45.08
75298;BME280;63896;45.990;18.688;2023-05-19T09:56:23;101310.56;;;26.75;46.05
75298;BME280;63896;45.990;18.688;2023-05-19T09:59:33;101316.63;;;26.02;47.63
75298;BME280;63896;45.990;18.688;2023-05-19T10:02:43;101317.22;;;25.33;48.37
75298;BME280;63896;45.990;18.688;2023-05-19T10:05:47;101317.25;;;26.13;45.68
75298;BME280;63896;45.990;18.688;2023-05-19T10:09:16;101311.53;;;27.39;45.05
75298;BME280;63896;45.990;18.688;2023-05-19T10:12:28;101295.97;;;27.80;42.89
75298;BME280;63896;45.990;18.688;2023-05-19T10:15:39;101292.41;;;27.80;41.02
75298;BME280;63896;45.990;18.688;2023-05-19T10:19:01;101291.50;;;28.96;40.81
75298;BME280;63896;45.990;18.688;2023-05-19T10:22:05;101280.56;;;28.20;41.80
75298;BME280;63896;45.990;18.688;2023-05-19T10:25:13;101277.41;;;26.54;45.18
75298;BME280;63896;45.990;18.688;2023-05-19T10:28:21;101274.38;;;27.43;43.74
75298;BME280;63896;45.990;18.688;2023-05-19T10:31:28;101265.81;;;28.21;42.60
75298;BME280;63896;45.990;18.688;2023-05-19T10:34:35;101276.94;;;27.26;43.27
75298;BME280;63896;45.990;18.688;2023-05-19T10:41:27;101279.38;;;24.60;51.80
75298;BME280;63896;45.990;18.688;2023-05-19T10:44:42;101269.34;;;27.36;43.12
75298;BME280;63896;45.990;18.688;2023-05-19T10:47:49;101273.88;;;27.27;42.29
75298;BME280;63896;45.990;18.688;2023-05-19T10:50:53;101275.34;;;25.95;44.98
75298;BME280;63896;45.990;18.688;2023-05-19T10:54:00;101286.53;;;24.17;50.22
75298;BME280;63896;45.990;18.688;2023-05-19T10:57:04;101285.81;;;24.02;50.34
75298;BME280;63896;45.990;18.688;2023-05-19T11:00:26;101279.00;;;24.72;48.68
75298;BME280;63896;45.990;18.688;2023-05-19T11:03:43;101268.25;;;25.38;48.89
75298;BME280;63896;45.990;18.688;2023-05-19T11:06:50;101266.50;;;27.69;42.49
75298;BME280;63896;45.990;18.688;2023-05-19T11:10:12;101262.75;;;28.45;41.22
75298;BME280;63896;45.990;18.688;2023-05-19T11:18:35;101271.53;;;27.34;44.94
75298;BME280;63896;45.990;18.688;2023-05-19T11:21:47;101263.72;;;28.18;41.94
75298;BME280;63896;45.990;18.688;2023-05-19T11:24:54;101270.44;;;27.35;45.32
75298;BME280;63896;45.990;18.688;2023-05-19T11:27:57;101272.78;;;27.15;43.18
75298;BME280;63896;45.990;18.688;2023-05-19T11:31:01;101257.34;;;28.31;40.78
75298;BME280;63896;45.990;18.688;2023-05-19T11:34:05;101252.50;;;27.21;44.08
75298;BME280;63896;45.990;18.688;2023-05-19T11:37:11;101249.06;;;28.14;43.43
75298;BME280;63896;45.990;18.688;2023-05-19T11:40:14;101246.75;;;27.22;44.84
75298;BME280;63896;45.990;18.688;2023-05-19T11:43:17;101245.94;;;27.22;46.01
75298;BME280;63896;45.990;18.688;2023-05-19T11:46:20;101252.09;;;26.54;46.88
75298;BME280;63896;45.990;18.688;2023-05-19T11:49:27;101249.47;;;26.17;46.95
75298;BME280;63896;45.990;18.688;2023-05-19T11:52:31;101246.13;;;25.45;48.21
75298;BME280;63896;45.990;18.688;2023-05-19T11:55:33;101245.88;;;25.23;50.15
75298;BME280;63896;45.990;18.688;2023-05-19T11:58:36;101233.97;;;25.80;48.31
75298;BME280;63896;45.990;18.688;2023-05-19T12:01:39;101226.63;;;25.80;48.13
75298;BME280;63896;45.990;18.688;2023-05-19T12:04:42;101234.19;;;26.80;46.77
75298;BME280;63896;45.990;18.688;2023-05-19T12:07:45;101225.22;;;29.47;41.43
75298;BME280;63896;45.990;18.688;2023-05-19T12:10:51;101222.44;;;30.41;37.79
75298;BME280;63896;45.990;18.688;2023-05-19T12:14:00;101211.91;;;31.48;35.64
75298;BME280;63896;45.990;18.688;2023-05-19T12:17:14;101205.84;;;31.13;35.13
75298;BME280;63896;45.990;18.688;2023-05-19T12:20:18;101188.72;;;31.16;35.82
75298;BME280;63896;45.990;18.688;2023-05-19T12:23:22;101199.59;;;27.49;43.00
75298;BME280;63896;45.990;18.688;2023-05-19T12:26:26;101189.41;;;30.84;37.26
75298;BME280;63896;45.990;18.688;2023-05-19T12:29:30;101193.91;;;28.96;38.65
75298;BME280;63896;45.990;18.688;2023-05-19T12:32:33;101190.72;;;28.32;41.16
75298;BME280;63896;45.990;18.688;2023-05-19T12:35:41;101186.47;;;29.45;38.19
75298;BME280;63896;45.990;18.688;2023-05-19T12:38:44;101186.97;;;28.20;40.94
75298;BME280;63896;45.990;18.688;2023-05-19T12:41:49;101191.75;;;26.93;42.32
75298;BME280;63896;45.990;18.688;2023-05-19T12:44:53;101194.31;;;27.53;41.98
75298;BME280;63896;45.990;18.688;2023-05-19T12:47:56;101177.13;;;27.88;43.60
75298;BME280;63896;45.990;18.688;2023-05-19T12:50:59;101191.34;;;26.99;45.89
75298;BME280;63896;45.990;18.688;2023-05-19T12:54:02;101190.25;;;25.39;49.20
75298;BME280;63896;45.990;18.688;2023-05-19T12:57:11;101186.59;;;25.48;49.54
75298;BME280;63896;45.990;18.688;2023-05-19T13:04:03;101186.44;;;25.77;48.17
75298;BME280;63896;45.990;18.688;2023-05-19T13:08:25;101188.28;;;29.01;41.45
75298;BME280;63896;45.990;18.688;2023-05-19T13:11:29;101174.94;;;27.99;43.35
75298;BME280;63896;45.990;18.688;2023-05-19T13:14:32;101185.25;;;27.30;45.77
75298;BME280;63896;45.990;18.688;2023-05-19T13:17:34;101179.16;;;26.24;47.62
75298;BME280;63896;45.990;18.688;2023-05-19T13:20:40;101173.59;;;25.83;49.44
75298;BME280;63896;45.990;18.688;2023-05-19T13:23:45;101172.28;;;25.62;50.17
75298;BME280;63896;45.990;18.688;2023-05-19T13:26:49;101175.19;;;25.28;50.15
75298;BME280;63896;45.990;18.688;2023-05-19T13:29:52;101168.41;;;26.32;47.86
75298;BME280;63896;45.990;18.688;2023-05-19T13:32:54;101169.59;;;26.26;49.52
75298;BME280;63896;45.990;18.688;2023-05-19T13:35:57;101163.22;;;25.85;49.64
75298;BME280;63896;45.990;18.688;2023-05-19T13:39:03;101162.41;;;25.84;49.33
75298;BME280;63896;45.990;18.688;2023-05-19T13:42:30;101152.53;;;25.56;50.04
75298;BME280;63896;45.990;18.688;2023-05-19T13:46:14;101152.41;;;25.98;50.16
75298;BME280;63896;45.990;18.688;2023-05-19T13:49:17;101146.25;;;25.18;50.01
75298;BME280;63896;45.990;18.688;2023-05-19T13:52:22;101148.34;;;25.02;52.41
75298;BME280;63896;45.990;18.688;2023-05-19T13:55:25;101150.19;;;25.07;52.21
75298;BME280;63896;45.990;18.688;2023-05-19T13:58:28;101141.84;;;24.80;52.72
75298;BME280;63896;45.990;18.688;2023-05-19T14:01:34;101143.69;;;25.08;51.37
75298;BME280;63896;45.990;18.688;2023-05-19T14:04:37;101138.09;;;25.18;51.17
75298;BME280;63896;45.990;18.688;2023-05-19T14:07:41;101135.06;;;24.01;53.91
75298;BME280;63896;45.990;18.688;2023-05-19T14:10:47;101133.47;;;24.76;52.53
75298;BME280;63896;45.990;18.688;2023-05-19T14:13:50;101132.09;;;25.21;52.12
75298;BME280;63896;45.990;18.688;2023-05-19T14:16:54;101126.22;;;25.33;53.23
75298;BME280;63896;45.990;18.688;2023-05-19T14:19:59;101118.50;;;25.40;51.15
75298;BME280;63896;45.990;18.688;2023-05-19T14:23:02;101121.06;;;25.31;52.18
75298;BME280;63896;45.990;18.688;2023-05-19T14:26:04;101121.47;;;25.25;52.98
75298;BME280;63896;45.990;18.688;2023-05-19T14:29:07;101120.56;;;25.29;51.27
75298;BME280;63896;45.990;18.688;2023-05-19T14:32:10;101118.84;;;23.96;52.97
75298;BME280;63896;45.990;18.688;2023-05-19T14:35:13;101116.47;;;23.06;55.63
75298;BME280;63896;45.990;18.688;2023-05-19T14:38:16;101118.94;;;23.86;54.72
75298;BME280;63896;45.990;18.688;2023-05-19T14:41:19;101112.75;;;24.38;55.04
75298;BME280;63896;45.990;18.688;2023-05-19T14:44:22;101117.91;;;24.63;54.63
75298;BME280;63896;45.990;18.688;2023-05-19T14:47:25;101122.78;;;24.37;54.08
75298;BME280;63896;45.990;18.688;2023-05-19T14:50:29;101121.53;;;23.96;54.51
75298;BME280;63896;45.990;18.688;2023-05-19T14:53:32;101126.69;;;23.97;53.33
75298;BME280;63896;45.990;18.688;2023-05-19T14:56:35;101118.91;;;24.19;54.14
75298;BME280;63896;45.990;18.688;2023-05-19T14:59:38;101121.06;;;24.46;54.63
75298;BME280;63896;45.990;18.688;2023-05-19T15:02:41;101129.22;;;24.46;54.53
75298;BME280;63896;45.990;18.688;2023-05-19T15:05:43;101132.44;;;23.91;55.74
75298;BME280;63896;45.990;18.688;2023-05-19T15:08:47;101123.09;;;23.29;57.75
75298;BME280;63896;45.990;18.688;2023-05-19T15:11:50;101127.00;;;22.33;59.84
75298;BME280;63896;45.990;18.688;2023-05-19T15:14:53;101119.66;;;22.54;60.41
75298;BME280;63896;45.990;18.688;2023-05-19T15:17:56;101127.00;;;22.33;61.55
75298;BME280;63896;45.990;18.688;2023-05-19T15:20:58;101120.28;;;22.31;61.50
75298;BME280;63896;45.990;18.688;2023-05-19T15:24:01;101115.84;;;22.55;60.11
75298;BME280;63896;45.990;18.688;2023-05-19T15:27:04;101120.19;;;22.61;60.28
75298;BME280;63896;45.990;18.688;2023-05-19T15:30:07;101115.50;;;22.87;59.46
75298;BME280;63896;45.990;18.688;2023-05-19T15:33:11;101109.31;;;23.25;59.55
75298;BME280;63896;45.990;18.688;2023-05-19T15:36:14;101105.94;;;23.05;57.76
75298;BME280;63896;45.990;18.688;2023-05-19T15:39:18;101115.19;;;22.04;61.81
75298;BME280;63896;45.990;18.688;2023-05-19T15:42:21;101112.75;;;22.03;61.91
75298;BME280;63896;45.990;18.688;2023-05-19T15:45:23;101114.34;;;22.24;62.67
75298;BME280;63896;45.990;18.688;2023-05-19T15:48:26;101111.81;;;22.53;61.86
75298;BME280;63896;45.990;18.688;2023-05-19T15:51:30;101106.63;;;22.76;60.17
75298;BME280;63896;45.990;18.688;2023-05-19T15:54:33;101100.81;;;22.98;58.90
75298;BME280;63896;45.990;18.688;2023-05-19T15:57:36;101097.50;;;22.47;60.62
75298;BME280;63896;45.990;18.688;2023-05-19T16:00:39;101104.31;;;22.29;61.88
75298;BME280;63896;45.990;18.688;2023-05-19T16:03:42;101108.69;;;21.65;62.00
75298;BME280;63896;45.990;18.688;2023-05-19T16:06:45;101110.81;;;21.53;62.94
75298;BME280;63896;45.990;18.688;2023-05-19T16:09:48;101100.81;;;21.38;62.74
75298;BME280;63896;45.990;18.688;2023-05-19T16:12:51;101093.25;;;21.40;63.86
75298;BME280;63896;45.990;18.688;2023-05-19T16:15:54;101101.09;;;21.42;63.54
75298;BME280;63896;45.990;18.688;2023-05-19T16:18:57;101093.56;;;21.54;63.20
75298;BME280;63896;45.990;18.688;2023-05-19T16:22:00;101097.31;;;21.37;64.33
75298;BME280;63896;45.990;18.688;2023-05-19T16:25:03;101096.47;;;21.22;65.24